createdAt,value
2022-11-08T00:00:04.345Z,43.18
2022-11-08T00:01:04.345Z,43.28
2022-11-08T00:02:04.486Z,43.07
2022-11-08T00:03:04.404Z,43.18
2022-11-08T00:04:04.316Z,43.18
2022-11-08T00:05:04.277Z,43.07
2022-11-08T00:06:04.273Z,43.26
2022-11-08T00:07:04.290Z,43.28
2022-11-08T00:08:04.238Z,43.28
2022-11-08T00:09:04.279Z,43.28
2022-11-08T00:10:04.298Z,43.18
2022-11-08T00:11:04.219Z,43.38
2022-11-08T00:12:04.188Z,43.28
2022-11-08T00:13:04.209Z,43.38
2022-11-08T00:14:04.187Z,43.18
2022-11-08T00:15:04.204Z,43.59
2022-11-08T00:16:04.160Z,43.49
2022-11-08T00:17:04.138Z,43.28
2022-11-08T00:18:04.132Z,43.28
2022-11-08T00:19:04.160Z,43.38
2022-11-08T00:20:04.098Z,43.28
2022-11-08T00:21:04.212Z,43.28
2022-11-08T00:22:04.079Z,43.28
2022-11-08T00:23:04.079Z,43.49
2022-11-08T00:24:04.049Z,43.49
2022-11-08T00:25:04.046Z,43.69
2022-11-08T00:26:04.081Z,43.81
2022-11-08T00:27:04.070Z,43.81
2022-11-08T00:28:04.021Z,43.71
2022-11-08T00:29:04.021Z,43.81
2022-11-08T00:30:03.984Z,43.51
2022-11-08T00:31:03.972Z,43.51
2022-11-08T00:32:03.959Z,43.28
2022-11-08T00:33:04.007Z,43.49
2022-11-08T00:34:03.941Z,43.18
2022-11-08T00:35:03.920Z,42.66
2022-11-08T00:36:03.913Z,42.05
2022-11-08T00:37:03.903Z,42.66
2022-11-08T00:38:03.984Z,42.46
2022-11-08T00:39:03.920Z,42.44
2022-11-08T00:40:03.862Z,42.65
2022-11-08T00:41:03.856Z,42.54
2022-11-08T00:42:03.853Z,42.44
2022-11-08T00:43:03.833Z,42.54
2022-11-08T00:44:03.902Z,42.65
2022-11-08T00:45:03.836Z,42.95
2022-11-08T00:46:03.807Z,42.95
2022-11-08T00:47:03.853Z,43.05
2022-11-08T00:48:03.781Z,43.26
2022-11-08T00:49:03.783Z,43.38
2022-11-08T00:50:04.123Z,43.38
2022-11-08T00:51:03.735Z,43.49
2022-11-08T00:52:03.734Z,43.79
2022-11-08T00:53:03.734Z,43.79
2022-11-08T00:54:03.801Z,43.79
2022-11-08T00:55:03.837Z,43.90
2022-11-08T00:56:03.807Z,43.79
2022-11-08T00:57:03.680Z,43.79
2022-11-08T00:58:03.698Z,43.38
2022-11-08T00:59:03.645Z,43.69
2022-11-08T01:00:03.635Z,43.69
2022-11-08T01:01:03.719Z,43.90
2022-11-08T01:02:03.847Z,43.59
2022-11-08T01:03:03.656Z,43.49
2022-11-08T01:04:03.604Z,43.38
2022-11-08T01:05:03.591Z,43.49
2022-11-08T01:06:03.595Z,43.59
2022-11-08T01:07:03.580Z,43.69
2022-11-08T01:08:03.556Z,43.79
2022-11-08T01:09:03.553Z,43.38
2022-11-08T01:10:03.519Z,43.79
2022-11-08T01:11:03.585Z,43.69
2022-11-08T01:12:03.598Z,43.69
2022-11-08T01:13:03.486Z,43.79
2022-11-08T01:14:03.540Z,44.00
2022-11-08T01:15:03.521Z,44.10
2022-11-08T01:16:03.489Z,44.10
2022-11-08T01:17:03.428Z,44.12
2022-11-08T01:18:03.534Z,44.23
2022-11-08T01:19:03.474Z,44.23
2022-11-08T01:20:03.461Z,44.43
2022-11-08T01:21:03.415Z,44.43
2022-11-08T01:22:03.378Z,44.64
2022-11-08T01:23:03.370Z,44.84
2022-11-08T01:24:03.378Z,44.94
2022-11-08T01:25:03.348Z,45.07
2022-11-08T01:26:03.318Z,45.17
2022-11-08T01:27:03.375Z,45.07
2022-11-08T01:28:03.331Z,45.48
2022-11-08T01:29:03.305Z,44.76
2022-11-08T01:30:03.387Z,45.07
2022-11-08T01:31:03.263Z,44.86
2022-11-08T01:32:03.271Z,44.96
2022-11-08T01:33:03.245Z,44.86
2022-11-08T01:34:03.240Z,45.37
2022-11-08T01:35:03.276Z,45.70
2022-11-08T01:36:03.280Z,45.60
2022-11-08T01:37:03.248Z,45.60
2022-11-08T01:38:03.181Z,45.72
2022-11-08T01:39:03.173Z,45.83
2022-11-08T01:40:03.161Z,45.72
2022-11-08T01:41:03.190Z,45.52
2022-11-08T01:42:03.183Z,45.62
2022-11-08T01:43:03.133Z,44.90
2022-11-08T01:44:03.128Z,44.70
2022-11-08T01:45:03.124Z,44.59
2022-11-08T01:46:03.107Z,44.80
2022-11-08T01:47:03.072Z,44.70
2022-11-08T01:48:03.111Z,44.70
2022-11-08T01:49:03.071Z,44.49
2022-11-08T01:50:03.073Z,44.18
2022-11-08T01:51:03.033Z,44.29
2022-11-08T01:52:03.024Z,44.70
2022-11-08T01:53:03.074Z,44.29
2022-11-08T01:54:03.004Z,44.29
2022-11-08T01:55:02.997Z,44.39
2022-11-08T01:56:02.989Z,44.51
2022-11-08T01:57:02.953Z,44.51
2022-11-08T01:58:02.943Z,44.41
2022-11-08T01:59:02.975Z,44.62
2022-11-08T02:00:02.928Z,44.72
2022-11-08T02:01:03.001Z,45.23
2022-11-08T02:02:03.031Z,44.74
2022-11-08T02:03:02.904Z,45.25
2022-11-08T02:04:02.888Z,44.43
2022-11-08T02:05:02.910Z,44.74
2022-11-08T02:06:02.866Z,45.04
2022-11-08T02:07:02.864Z,44.84
2022-11-08T02:08:02.857Z,45.04
2022-11-08T02:09:02.829Z,45.28
2022-11-08T02:10:02.805Z,45.17
2022-11-08T02:11:02.817Z,44.76
2022-11-08T02:12:02.787Z,44.86
2022-11-08T02:13:05.005Z,44.43
2022-11-08T02:14:02.766Z,44.23
2022-11-08T02:15:02.755Z,44.33
2022-11-08T02:16:02.776Z,44.33
2022-11-08T02:17:02.750Z,44.53
2022-11-08T02:18:02.735Z,44.24
2022-11-08T02:19:02.707Z,44.56
2022-11-08T02:20:02.701Z,44.24
2022-11-08T02:21:02.687Z,44.24
2022-11-08T02:22:02.697Z,44.35
2022-11-08T02:23:02.650Z,43.93
2022-11-08T02:24:02.669Z,44.04
2022-11-08T02:25:02.645Z,44.14
2022-11-08T02:26:02.651Z,44.04
2022-11-08T02:27:02.617Z,44.24
2022-11-08T02:28:02.619Z,44.24
2022-11-08T02:29:02.588Z,43.93
2022-11-08T02:30:02.584Z,43.93
2022-11-08T02:31:02.562Z,44.04
2022-11-08T02:32:02.561Z,44.04
2022-11-08T02:33:02.572Z,43.93
2022-11-08T02:34:02.529Z,44.24
2022-11-08T02:35:02.511Z,44.24
2022-11-08T02:36:02.528Z,44.26
2022-11-08T02:37:02.514Z,44.37
2022-11-08T02:38:02.506Z,45.61
2022-11-08T02:39:02.522Z,44.90
2022-11-08T02:40:02.496Z,45.21
2022-11-08T02:41:02.450Z,45.11
2022-11-08T02:42:02.440Z,44.70
2022-11-08T02:43:02.426Z,44.90
2022-11-08T02:44:02.473Z,44.80
2022-11-08T02:45:02.431Z,44.90
2022-11-08T02:46:02.419Z,44.90
2022-11-08T02:47:02.408Z,44.80
2022-11-08T02:48:02.413Z,44.90
2022-11-08T02:49:02.380Z,45.11
2022-11-08T02:50:02.428Z,45.34
2022-11-08T02:51:02.342Z,45.23
2022-11-08T02:52:02.322Z,45.34
2022-11-08T02:53:02.339Z,45.23
2022-11-08T02:54:02.303Z,45.03
2022-11-08T02:55:02.297Z,45.44
2022-11-08T02:56:02.304Z,45.34
2022-11-08T02:57:02.282Z,45.54
2022-11-08T02:58:02.255Z,45.44
2022-11-08T02:59:02.250Z,45.44
2022-11-08T03:00:02.233Z,45.34
2022-11-08T03:01:02.336Z,45.13
2022-11-08T03:02:02.331Z,45.34
2022-11-08T03:03:02.204Z,45.34
2022-11-08T03:04:02.179Z,45.77
2022-11-08T03:05:02.217Z,45.98
2022-11-08T03:06:02.206Z,45.67
2022-11-08T03:07:02.182Z,45.36
2022-11-08T03:08:02.148Z,45.56
2022-11-08T03:09:02.136Z,45.67
2022-11-08T03:10:02.121Z,45.46
2022-11-08T03:11:02.102Z,45.36
2022-11-08T03:12:02.104Z,45.36
2022-11-08T03:13:02.179Z,45.36
2022-11-08T03:14:02.082Z,45.15
2022-11-08T03:15:02.075Z,45.05
2022-11-08T03:16:02.042Z,45.03
2022-11-08T03:17:02.043Z,45.03
2022-11-08T03:18:02.014Z,45.03
2022-11-08T03:19:02.045Z,45.13
2022-11-08T03:20:02.004Z,45.15
2022-11-08T03:21:02.016Z,45.25
2022-11-08T03:22:01.999Z,45.36
2022-11-08T03:23:01.973Z,45.36
2022-11-08T03:24:02.001Z,45.36
2022-11-08T03:25:01.956Z,45.36
2022-11-08T03:26:01.936Z,45.46
2022-11-08T03:27:01.937Z,45.46
2022-11-08T03:28:01.921Z,45.48
2022-11-08T03:29:01.898Z,45.79
2022-11-08T03:30:02.879Z,45.69
2022-11-08T03:31:01.875Z,45.48
2022-11-08T03:32:01.897Z,45.59
2022-11-08T03:33:01.858Z,45.69
2022-11-08T03:34:01.844Z,45.38
2022-11-08T03:35:01.826Z,45.48
2022-11-08T03:36:01.886Z,45.69
2022-11-08T03:37:01.826Z,45.79
2022-11-08T03:38:01.803Z,45.79
2022-11-08T03:39:01.794Z,45.89
2022-11-08T03:40:01.822Z,46.02
2022-11-08T03:41:01.811Z,46.02
2022-11-08T03:42:01.751Z,46.02
2022-11-08T03:43:01.737Z,46.12
2022-11-08T03:44:01.738Z,46.02
2022-11-08T03:45:01.740Z,46.12
2022-11-08T03:46:01.722Z,46.23
2022-11-08T03:47:01.780Z,46.12
2022-11-08T03:48:01.687Z,46.02
2022-11-08T03:49:01.677Z,46.12
2022-11-08T03:50:01.672Z,45.71
2022-11-08T03:51:01.647Z,45.50
2022-11-08T03:52:01.651Z,45.48
2022-11-08T03:53:01.658Z,44.86
2022-11-08T03:54:01.611Z,44.53
2022-11-08T03:55:01.617Z,44.20
2022-11-08T03:56:01.585Z,43.77
2022-11-08T03:57:01.587Z,43.57
2022-11-08T03:58:01.568Z,43.46
2022-11-08T03:59:01.618Z,43.36
2022-11-08T04:00:01.543Z,43.34
2022-11-08T04:01:01.643Z,43.13
2022-11-08T04:02:01.661Z,43.13
2022-11-08T04:03:01.507Z,43.13
2022-11-08T04:04:01.503Z,43.03
2022-11-08T04:05:01.552Z,43.03
2022-11-08T04:06:01.488Z,42.93
2022-11-08T04:07:01.490Z,42.82
2022-11-08T04:08:01.451Z,42.93
2022-11-08T04:09:01.474Z,42.93
2022-11-08T04:10:01.429Z,42.93
2022-11-08T04:11:01.479Z,42.93
2022-11-08T04:12:01.401Z,42.82
2022-11-08T04:13:01.405Z,42.72
2022-11-08T04:14:01.379Z,42.62
2022-11-08T04:15:01.379Z,42.49
2022-11-08T04:16:01.468Z,42.49
2022-11-08T04:17:01.359Z,42.60
2022-11-08T04:18:01.340Z,42.62
2022-11-08T04:19:01.322Z,42.62
2022-11-08T04:20:01.321Z,42.72
2022-11-08T04:21:01.301Z,42.72
2022-11-08T04:22:01.334Z,42.52
2022-11-08T04:23:01.283Z,42.41
2022-11-08T04:24:01.273Z,42.49
2022-11-08T04:25:01.262Z,42.40
2022-11-08T04:26:01.252Z,42.29
2022-11-08T04:27:01.233Z,42.29
2022-11-08T04:28:01.245Z,42.19
2022-11-08T04:29:01.252Z,42.19
2022-11-08T04:30:01.204Z,42.19
2022-11-08T04:31:01.215Z,42.08
2022-11-08T04:32:01.188Z,42.19
2022-11-08T04:33:01.198Z,42.19
2022-11-08T04:34:01.161Z,42.49
2022-11-08T04:35:01.144Z,42.41
2022-11-08T04:36:01.142Z,42.41
2022-11-08T04:37:01.122Z,42.41
2022-11-08T04:38:01.112Z,42.41
2022-11-08T04:39:01.132Z,42.52
2022-11-08T04:40:01.094Z,42.31
2022-11-08T04:41:01.136Z,42.31
2022-11-08T04:42:02.665Z,42.29
2022-11-08T04:43:01.044Z,42.19
2022-11-08T04:44:01.043Z,42.19
2022-11-08T04:45:01.167Z,42.08
2022-11-08T04:46:01.035Z,42.08
2022-11-08T04:47:01.019Z,41.98
2022-11-08T04:48:00.994Z,41.98
2022-11-08T04:49:01.003Z,41.98
2022-11-08T04:50:00.979Z,41.98
2022-11-08T04:51:01.008Z,41.98
2022-11-08T04:52:00.977Z,41.98
2022-11-08T04:53:00.936Z,41.98
2022-11-08T04:54:00.925Z,41.98
2022-11-08T04:55:00.926Z,41.98
2022-11-08T04:56:00.915Z,41.98
2022-11-08T04:57:00.921Z,41.98
2022-11-08T04:58:00.884Z,41.98
2022-11-08T04:59:00.879Z,41.98
2022-11-08T05:00:00.857Z,41.98
2022-11-08T05:01:00.870Z,41.98
2022-11-08T05:02:00.966Z,41.98
2022-11-08T05:03:00.817Z,41.98
2022-11-08T05:04:00.818Z,42.08
2022-11-08T05:05:00.823Z,42.21
2022-11-08T05:06:00.816Z,42.31
2022-11-08T05:07:00.816Z,42.21
2022-11-08T05:08:00.836Z,42.31
2022-11-08T05:09:00.770Z,42.31
2022-11-08T05:10:02.630Z,42.41
2022-11-08T05:11:00.806Z,42.52
2022-11-08T05:12:00.746Z,42.64
2022-11-08T05:13:00.714Z,42.64
2022-11-08T05:14:00.737Z,42.85
2022-11-08T05:15:00.694Z,42.85
2022-11-08T05:16:00.672Z,42.85
2022-11-08T05:17:00.680Z,42.85
2022-11-08T05:18:00.650Z,42.94
2022-11-08T05:19:00.641Z,42.85
2022-11-08T05:20:00.648Z,42.94
2022-11-08T05:21:00.624Z,42.94
2022-11-08T05:22:00.609Z,42.97
2022-11-08T05:23:00.601Z,43.07
2022-11-08T05:24:00.588Z,43.07
2022-11-08T05:25:00.623Z,43.17
2022-11-08T05:26:00.575Z,43.17
2022-11-08T05:27:00.573Z,43.17
2022-11-08T05:28:00.548Z,43.17
2022-11-08T05:29:00.543Z,43.07
2022-11-08T05:30:00.535Z,43.07
2022-11-08T05:31:00.601Z,43.07
2022-11-08T05:32:00.502Z,43.17
2022-11-08T05:33:00.499Z,43.07
2022-11-08T05:34:00.470Z,43.17
2022-11-08T05:35:00.490Z,43.17
2022-11-08T05:36:05.517Z,43.17
2022-11-08T05:37:01.452Z,43.27
2022-11-08T05:38:00.440Z,43.27
2022-11-08T05:39:00.422Z,43.27
2022-11-08T05:40:00.416Z,43.50
2022-11-08T05:41:00.396Z,43.60
2022-11-08T05:42:00.417Z,43.60
2022-11-08T05:43:00.367Z,43.60
2022-11-08T05:44:00.361Z,43.60
2022-11-08T05:45:02.941Z,43.71
2022-11-08T05:46:01.355Z,43.71
2022-11-08T05:47:00.390Z,43.60
2022-11-08T05:48:00.341Z,43.60
2022-11-08T05:49:00.321Z,43.71
2022-11-08T05:50:00.292Z,43.71
2022-11-08T05:51:00.275Z,43.81
2022-11-08T05:52:00.294Z,43.93
2022-11-08T05:53:00.270Z,43.93
2022-11-08T05:54:00.266Z,44.04
2022-11-08T05:55:00.236Z,44.04
2022-11-08T05:56:00.218Z,44.04
2022-11-08T05:57:00.224Z,44.04
2022-11-08T05:58:00.225Z,44.04
2022-11-08T05:59:00.182Z,44.04
2022-11-08T06:00:00.206Z,44.04
2022-11-08T06:01:00.194Z,44.14
2022-11-08T06:02:00.255Z,43.93
2022-11-08T06:03:00.306Z,44.04
2022-11-08T06:04:00.133Z,44.14
2022-11-08T06:05:00.136Z,44.24
2022-11-08T06:06:00.138Z,44.47
2022-11-08T06:07:00.114Z,44.47
2022-11-08T06:08:00.089Z,44.68
2022-11-08T06:09:00.091Z,44.47
2022-11-08T06:10:00.054Z,44.04
2022-11-08T06:11:00.060Z,43.91
2022-11-08T06:12:00.093Z,43.40
2022-11-08T06:13:00.038Z,43.17
2022-11-08T06:14:00.029Z,43.17
2022-11-08T06:15:00.354Z,43.17
2022-11-08T06:15:59.979Z,43.19
2022-11-08T06:17:00.008Z,43.40
2022-11-08T06:17:59.988Z,43.40
2022-11-08T06:18:59.993Z,43.60
2022-11-08T06:19:59.946Z,43.52
2022-11-08T06:20:59.948Z,43.63
2022-11-08T06:21:59.926Z,43.73
2022-11-08T06:22:59.967Z,43.83
2022-11-08T06:23:59.921Z,43.93
2022-11-08T06:24:59.908Z,44.16
2022-11-08T06:25:59.887Z,44.16
2022-11-08T06:26:59.891Z,43.96
2022-11-08T06:27:59.846Z,44.04
2022-11-08T06:28:59.872Z,43.93
2022-11-08T06:29:59.845Z,43.50
2022-11-08T06:30:59.830Z,43.38
2022-11-08T06:31:59.809Z,43.17
2022-11-08T06:32:59.828Z,43.09
2022-11-08T06:33:59.782Z,43.30
2022-11-08T06:34:59.808Z,43.50
2022-11-08T06:35:59.759Z,43.52
2022-11-08T06:36:59.760Z,43.73
2022-11-08T06:38:01.985Z,43.73
2022-11-08T06:38:59.722Z,43.83
2022-11-08T06:39:59.722Z,44.06
2022-11-08T06:40:59.738Z,44.06
2022-11-08T06:41:59.700Z,44.26
2022-11-08T06:42:59.678Z,44.26
2022-11-08T06:43:59.672Z,44.37
2022-11-08T06:44:59.678Z,44.47
2022-11-08T06:45:59.651Z,44.49
2022-11-08T06:46:59.703Z,44.49
2022-11-08T06:47:59.613Z,44.49
2022-11-08T06:48:59.612Z,44.47
2022-11-08T06:49:59.604Z,44.06
2022-11-08T06:50:59.599Z,43.93
2022-11-08T06:51:59.600Z,43.71
2022-11-08T06:52:59.589Z,43.40
2022-11-08T06:53:59.581Z,43.19
2022-11-08T06:54:59.540Z,43.07
2022-11-08T06:55:59.538Z,42.86
2022-11-08T06:56:59.515Z,42.86
2022-11-08T06:57:59.548Z,42.76
2022-11-08T06:58:59.482Z,42.76
2022-11-08T06:59:59.492Z,42.86
2022-11-08T07:00:59.462Z,42.86
2022-11-08T07:01:59.583Z,42.86
2022-11-08T07:02:59.562Z,42.86
2022-11-08T07:03:59.494Z,42.86
2022-11-08T07:04:59.421Z,42.76
2022-11-08T07:05:59.409Z,42.66
2022-11-08T07:06:59.400Z,42.55
2022-11-08T07:07:59.381Z,42.43
2022-11-08T07:08:59.370Z,42.33
2022-11-08T07:10:03.592Z,42.22
2022-11-08T07:10:59.368Z,42.12
2022-11-08T07:11:59.363Z,42.00
2022-11-08T07:12:59.327Z,41.80
2022-11-08T07:13:59.312Z,41.80
2022-11-08T07:14:59.307Z,41.69
2022-11-08T07:15:59.326Z,41.59
2022-11-08T07:16:59.294Z,41.59
2022-11-08T07:17:59.337Z,41.49
2022-11-08T07:18:59.258Z,41.49
2022-11-08T07:19:59.284Z,41.47
2022-11-08T07:20:59.246Z,41.36
2022-11-08T07:21:59.311Z,41.36
2022-11-08T07:22:59.223Z,41.26
2022-11-08T07:23:59.218Z,41.26
2022-11-08T07:24:59.195Z,41.16
2022-11-08T07:25:59.201Z,41.16
2022-11-08T07:26:59.163Z,41.16
2022-11-08T07:27:59.183Z,41.16
2022-11-08T07:28:59.158Z,41.16
2022-11-08T07:29:59.155Z,41.16
2022-11-08T07:30:59.170Z,41.16
2022-11-08T07:31:59.105Z,41.05
2022-11-08T07:32:59.107Z,41.05
2022-11-08T07:33:59.130Z,41.05
2022-11-08T07:34:59.086Z,41.05
2022-11-08T07:35:59.067Z,41.05
2022-11-08T07:36:59.055Z,41.17
2022-11-08T07:37:59.052Z,41.17
2022-11-08T07:39:02.401Z,41.28
2022-11-08T07:40:00.082Z,41.17
2022-11-08T07:40:59.011Z,41.17
2022-11-08T07:41:58.994Z,41.28
2022-11-08T07:43:23.366Z,41.28
2022-11-08T07:43:59.997Z,41.28
2022-11-08T07:44:59.001Z,41.17
2022-11-08T07:45:58.983Z,41.17
2022-11-08T07:46:58.926Z,41.28
2022-11-08T07:47:58.956Z,41.28
2022-11-08T07:48:58.919Z,41.28
2022-11-08T07:49:58.933Z,41.28
2022-11-08T07:50:58.921Z,41.38
2022-11-08T07:51:58.897Z,41.38
2022-11-08T07:52:58.868Z,41.28
2022-11-08T07:54:02.827Z,41.28
2022-11-08T07:54:58.840Z,41.17
2022-11-08T07:55:58.855Z,41.17
2022-11-08T07:56:58.869Z,41.17
2022-11-08T07:57:58.817Z,41.08
2022-11-08T07:58:58.798Z,41.08
2022-11-08T08:00:01.406Z,40.95
2022-11-08T08:00:59.792Z,41.05
2022-11-08T08:01:58.832Z,40.95
2022-11-08T08:02:58.875Z,40.95
2022-11-08T08:03:58.743Z,40.85
2022-11-08T08:04:58.732Z,40.85
2022-11-08T08:06:01.382Z,40.75
2022-11-08T08:06:58.709Z,40.64
2022-11-08T08:07:58.785Z,40.42
2022-11-08T08:08:58.683Z,40.42
2022-11-08T08:09:58.682Z,40.42
2022-11-08T08:10:58.707Z,40.21
2022-11-08T08:11:58.651Z,40.09
2022-11-08T08:12:58.644Z,40.40
2022-11-08T08:13:58.650Z,40.09
2022-11-08T08:14:58.624Z,40.19
2022-11-08T08:15:58.600Z,39.89
2022-11-08T08:16:58.602Z,40.30
2022-11-08T08:17:58.578Z,40.08
2022-11-08T08:18:58.574Z,40.17
2022-11-08T08:19:58.591Z,40.48
2022-11-08T08:20:58.541Z,40.28
2022-11-08T08:21:58.533Z,40.79
2022-11-08T08:22:58.547Z,40.79
2022-11-08T08:23:58.525Z,40.79
2022-11-08T08:25:02.709Z,41.19
2022-11-08T08:25:58.515Z,41.19
2022-11-08T08:26:58.478Z,42.11
2022-11-08T08:27:58.556Z,42.00
2022-11-08T08:28:58.474Z,41.80
2022-11-08T08:29:58.443Z,42.11
2022-11-08T08:30:58.457Z,42.19
2022-11-08T08:31:58.790Z,42.50
2022-11-08T08:33:26.275Z,43.01
2022-11-08T08:33:59.398Z,43.40
2022-11-08T08:34:58.411Z,44.02
2022-11-08T08:35:58.366Z,44.53
2022-11-08T08:36:58.418Z,45.97
2022-11-08T08:37:58.367Z,46.05
2022-11-08T08:38:58.343Z,46.67
2022-11-08T08:39:58.335Z,47.38
2022-11-08T08:40:58.379Z,49.64
2022-11-08T08:41:58.314Z,50.13
2022-11-08T08:42:58.319Z,51.98
2022-11-08T08:43:58.297Z,54.02
2022-11-08T08:44:58.269Z,56.38
2022-11-08T08:45:58.270Z,57.20
2022-11-08T08:46:58.254Z,57.38
2022-11-08T08:47:58.245Z,59.12
2022-11-08T08:48:58.277Z,60.46
2022-11-08T08:49:58.277Z,61.15
2022-11-08T08:50:58.228Z,62.78
2022-11-08T08:51:58.186Z,64.73
2022-11-08T08:52:58.201Z,65.75
2022-11-08T08:53:58.168Z,68.08
2022-11-08T08:54:58.187Z,67.97
2022-11-08T08:55:58.158Z,68.59
2022-11-08T08:56:58.126Z,71.15
2022-11-08T08:57:58.129Z,73.40
2022-11-08T09:01:59.077Z,75.82
2022-11-08T09:02:58.060Z,77.26
2022-11-08T09:03:58.053Z,77.70
2022-11-08T09:04:58.059Z,77.39
2022-11-08T09:05:58.038Z,77.36
2022-11-08T09:06:58.059Z,77.05
2022-11-08T09:07:58.024Z,77.97
2022-11-08T09:08:57.980Z,77.05
2022-11-08T09:09:58.732Z,77.46
2022-11-08T09:10:58.022Z,78.69
2022-11-08T09:11:57.949Z,78.24
2022-11-08T09:12:57.971Z,78.14
2022-11-08T09:13:57.931Z,79.06
2022-11-08T09:14:57.930Z,77.94
2022-11-08T09:15:58.012Z,78.00
2022-11-08T09:16:57.909Z,79.23
2022-11-08T09:17:57.950Z,81.21
2022-11-08T09:18:57.867Z,82.64
2022-11-08T09:19:57.904Z,83.56
2022-11-08T09:20:57.853Z,83.97
2022-11-08T09:21:58.001Z,83.32
2022-11-08T09:22:57.860Z,84.75
2022-11-08T09:23:57.822Z,84.24
2022-11-08T09:24:57.811Z,85.57
2022-11-08T09:25:57.793Z,84.75
2022-11-08T09:26:57.781Z,85.94
2022-11-08T09:27:58.005Z,84.71
2022-11-08T09:28:57.751Z,86.35
2022-11-08T09:29:57.758Z,87.37
2022-11-08T09:30:57.742Z,86.96
2022-11-08T09:31:57.723Z,86.85
2022-11-08T09:33:01.956Z,88.39
2022-11-08T09:33:57.746Z,89.61
2022-11-08T09:34:57.782Z,89.92
2022-11-08T09:35:57.676Z,90.02
2022-11-08T09:36:57.662Z,89.92
2022-11-08T09:37:57.658Z,90.29
2022-11-08T09:38:57.680Z,90.19
2022-11-08T09:39:57.624Z,92.94
2022-11-08T09:40:57.655Z,91.56
2022-11-08T09:41:57.618Z,89.78
2022-11-08T09:42:57.586Z,90.84
2022-11-08T09:43:57.605Z,91.20
2022-11-08T09:44:57.667Z,88.96
2022-11-08T09:45:57.621Z,90.19
2022-11-08T09:46:57.557Z,91.35
2022-11-08T09:47:57.527Z,91.15
2022-11-08T09:48:57.535Z,91.46
2022-11-08T09:49:58.745Z,90.90
2022-11-08T09:50:57.509Z,92.23
2022-11-08T09:51:57.516Z,93.19
2022-11-08T09:52:57.468Z,92.88
2022-11-08T09:53:57.468Z,92.47
2022-11-08T09:54:57.457Z,92.88
2022-11-08T09:55:57.473Z,92.99
2022-11-08T09:56:57.432Z,93.13
2022-11-08T09:57:57.463Z,92.52
2022-11-08T09:58:57.407Z,92.42
2022-11-08T09:59:57.392Z,92.11
2022-11-08T10:00:57.385Z,92.11
2022-11-08T10:01:57.436Z,91.80
2022-11-08T10:02:57.348Z,92.32
2022-11-08T10:03:57.351Z,92.36
2022-11-08T10:04:57.353Z,92.05
2022-11-08T10:05:57.358Z,91.95
2022-11-08T10:07:02.098Z,92.56
2022-11-08T10:07:58.343Z,92.05
2022-11-08T10:08:57.280Z,92.25
2022-11-08T10:09:57.270Z,92.36
2022-11-08T10:10:57.270Z,91.74
2022-11-08T10:11:57.269Z,92.25
2022-11-08T10:12:57.271Z,92.46
2022-11-08T10:13:57.240Z,91.95
2022-11-08T10:14:57.221Z,92.46
2022-11-08T10:15:57.214Z,92.87
2022-11-08T10:16:57.189Z,92.62
2022-11-08T10:17:57.187Z,93.13
2022-11-08T10:18:57.210Z,92.62
2022-11-08T10:20:06.385Z,93.85
2022-11-08T10:20:58.139Z,94.32
2022-11-08T10:21:57.148Z,95.54
2022-11-08T10:22:57.141Z,95.23
2022-11-08T10:23:57.124Z,94.62
2022-11-08T10:24:57.131Z,95.80
2022-11-08T10:25:57.091Z,95.70
2022-11-08T10:26:57.082Z,96.72
2022-11-08T10:27:57.073Z,96.01
2022-11-08T10:28:57.072Z,96.11
2022-11-08T10:29:57.046Z,96.01
2022-11-08T10:30:57.077Z,95.80
2022-11-08T10:31:57.011Z,94.89
2022-11-08T10:32:57.002Z,95.09
2022-11-08T10:33:57.024Z,94.89
2022-11-08T10:34:56.972Z,94.37
2022-11-08T10:36:01.758Z,94.27
2022-11-08T10:36:58.087Z,94.17
2022-11-08T10:37:56.943Z,94.37
2022-11-08T10:38:56.947Z,94.27
2022-11-08T10:39:56.945Z,94.07
2022-11-08T10:40:56.943Z,93.55
2022-11-08T10:41:56.912Z,94.17
2022-11-08T10:42:56.937Z,92.84
2022-11-08T10:43:56.876Z,93.15
2022-11-08T10:44:56.854Z,92.74
2022-11-08T10:45:56.855Z,92.64
2022-11-08T10:46:56.836Z,92.33
2022-11-08T10:47:56.884Z,92.23
2022-11-08T10:48:56.815Z,92.64
2022-11-08T10:50:02.440Z,91.82
2022-11-08T10:50:57.810Z,91.92
2022-11-08T10:51:56.792Z,91.72
2022-11-08T10:52:56.766Z,91.41
2022-11-08T10:53:56.959Z,92.02
2022-11-08T10:54:57.049Z,91.78
2022-11-08T10:55:56.743Z,91.67
2022-11-08T10:56:56.739Z,92.86
2022-11-08T10:57:56.727Z,94.79
2022-11-08T10:58:56.727Z,94.49
2022-11-08T10:59:56.711Z,94.55
2022-11-08T11:00:56.672Z,95.87
2022-11-08T11:01:56.701Z,96.48
2022-11-08T11:02:56.657Z,96.48
2022-11-08T11:03:56.641Z,96.69
2022-11-08T11:04:56.677Z,96.89
2022-11-08T11:05:56.618Z,97.00
2022-11-08T11:06:56.652Z,97.87
2022-11-08T11:08:00.741Z,98.27
2022-11-08T11:08:57.589Z,97.97
2022-11-08T11:09:56.569Z,98.89
2022-11-08T11:10:56.578Z,98.89
2022-11-08T11:11:56.549Z,98.68
2022-11-08T11:12:56.539Z,98.79
2022-11-08T11:13:56.528Z,99.29
2022-11-08T11:14:56.521Z,98.99
2022-11-08T11:15:56.523Z,98.32
2022-11-08T11:16:56.571Z,98.38
2022-11-08T11:17:56.496Z,98.58
2022-11-08T11:18:56.473Z,98.58
2022-11-08T11:19:56.488Z,98.18
2022-11-08T11:20:56.458Z,98.89
2022-11-08T11:21:56.484Z,98.68
2022-11-08T11:22:56.422Z,98.68
2022-11-08T11:23:56.414Z,99.19
2022-11-08T11:24:56.422Z,98.89
2022-11-08T11:25:56.410Z,98.99
2022-11-08T11:26:56.421Z,98.84
2022-11-08T11:27:56.370Z,98.64
2022-11-08T11:28:56.360Z,98.64
2022-11-08T11:29:56.336Z,99.45
2022-11-08T11:30:56.343Z,99.04
2022-11-08T11:31:56.321Z,99.25
2022-11-08T11:32:56.403Z,99.66
2022-11-08T11:33:56.304Z,99.66
2022-11-08T11:34:56.296Z,98.84
2022-11-08T11:35:56.291Z,99.55
2022-11-08T11:36:56.287Z,99.41
2022-11-08T11:37:56.283Z,99.61
2022-11-08T11:38:56.282Z,99.99
2022-11-08T11:39:56.235Z,99.91
2022-11-08T11:40:56.287Z,99.61
2022-11-08T11:41:56.217Z,99.51
2022-11-08T11:42:56.213Z,99.99
2022-11-08T11:43:56.206Z,99.99
2022-11-08T11:44:56.206Z,99.97
2022-11-08T11:45:56.167Z,99.99
2022-11-08T11:46:56.149Z,99.97
2022-11-08T11:47:56.140Z,99.99
2022-11-08T11:48:56.126Z,99.97
2022-11-08T11:49:56.137Z,99.99
2022-11-08T11:50:56.131Z,99.99
2022-11-08T11:51:56.120Z,99.99
2022-11-08T11:52:56.081Z,99.99
2022-11-08T11:53:56.078Z,99.99
2022-11-08T11:54:56.079Z,99.99
2022-11-08T11:55:56.059Z,99.99
2022-11-08T11:56:56.039Z,99.99
2022-11-08T11:57:56.036Z,99.99
2022-11-08T11:58:56.024Z,99.99
2022-11-08T11:59:56.027Z,99.99
2022-11-08T12:00:55.987Z,99.99
2022-11-08T12:01:56.035Z,99.99
2022-11-08T12:02:55.976Z,99.99
2022-11-08T12:03:55.959Z,99.99
2022-11-08T12:04:55.949Z,99.99
2022-11-08T12:05:55.972Z,99.99
2022-11-08T12:06:58.560Z,99.99
2022-11-08T12:07:55.908Z,99.99
2022-11-08T12:08:55.895Z,99.99
2022-11-08T12:09:55.890Z,99.99
2022-11-08T12:10:55.869Z,99.99
2022-11-08T12:11:55.912Z,99.99
2022-11-08T12:12:55.851Z,99.99
2022-11-08T12:13:55.840Z,99.99
2022-11-08T12:14:55.830Z,99.99
2022-11-08T12:15:55.821Z,99.99
2022-11-08T12:16:55.811Z,99.99
2022-11-08T12:17:55.811Z,99.99
2022-11-08T12:18:55.776Z,99.99
2022-11-08T12:19:55.772Z,99.99
2022-11-08T12:20:55.752Z,99.99
2022-11-08T12:21:55.742Z,99.99
2022-11-08T12:22:55.754Z,99.99
2022-11-08T12:23:55.742Z,99.99
2022-11-08T12:24:55.712Z,99.99
2022-11-08T12:25:55.702Z,99.99
2022-11-08T12:26:55.734Z,99.99
2022-11-08T12:27:55.674Z,99.99
2022-11-08T12:28:55.683Z,99.99
2022-11-08T12:29:55.653Z,99.99
2022-11-08T12:30:55.642Z,99.99
2022-11-08T12:31:55.638Z,99.99
2022-11-08T12:32:55.619Z,99.99
2022-11-08T12:33:58.217Z,99.99
2022-11-08T12:34:55.638Z,99.99
2022-11-08T12:35:55.574Z,99.99
2022-11-08T12:36:55.572Z,99.99
2022-11-08T12:37:55.561Z,99.99
2022-11-08T12:38:55.545Z,99.99
2022-11-08T12:39:55.538Z,99.99
2022-11-08T12:40:55.616Z,99.99
2022-11-08T12:41:55.505Z,99.99
2022-11-08T12:42:55.503Z,99.99
2022-11-08T12:43:55.524Z,99.99
2022-11-08T12:44:55.474Z,99.99
2022-11-08T12:45:55.458Z,99.99
2022-11-08T12:46:55.467Z,99.99
2022-11-08T12:47:55.440Z,99.99
2022-11-08T12:48:55.422Z,99.99
2022-11-08T12:49:55.428Z,99.99
2022-11-08T12:51:00.295Z,99.99
2022-11-08T12:51:56.419Z,99.99
2022-11-08T12:52:55.377Z,99.99
2022-11-08T12:53:55.361Z,99.99
2022-11-08T12:54:55.360Z,99.99